Time;durP1;ratioP1;P1;durP2;ratioP2;P2;SDS_P1;SDS_P2;PMS_P1;PMS_P2;Temp;Humidity;BMP_temperature;BMP_pressure;BME280_temperature;BME280_humidity;BME280_pressure;Samples;Min_cycle;Max_cycle;Signal;HPM_P1;HPM_P2
2023/04/03 00:01:27;;;;;;;4.97;2.20;;;2.40;99.90;;;;;;5053884;28;20207;-50
2023/04/03 00:03:54;;;;;;;9.18;2.08;;;2.60;99.90;;;;;;5055532;28;20199;-49
2023/04/03 00:06:21;;;;;;;3.45;1.70;;;2.50;99.90;;;;;;5055181;28;20613;-49
2023/04/03 00:08:50;;;;;;;8.27;2.85;;;2.40;99.90;;;;;;5054066;28;20675;-49
2023/04/03 00:11:17;;;;;;;10.02;2.55;;;2.40;99.90;;;;;;5055134;28;20203;-49
2023/04/03 00:13:45;;;;;;;6.07;2.25;;;2.50;99.90;;;;;;5055003;28;20203;-49
2023/04/03 00:16:12;;;;;;;6.50;2.72;;;2.40;99.90;;;;;;5054956;28;20200;-49
2023/04/03 00:18:40;;;;;;;7.75;2.25;;;2.50;99.90;;;;;;5053806;28;20306;-49
2023/04/03 00:21:08;;;;;;;4.70;2.05;;;2.40;99.90;;;;;;5053794;28;20214;-50
2023/04/03 00:23:35;;;;;;;9.02;2.97;;;2.30;99.90;;;;;;5053647;28;20291;-50
2023/04/03 00:26:03;;;;;;;6.20;2.40;;;2.40;99.90;;;;;;5054996;28;20200;-48
2023/04/03 00:28:30;;;;;;;5.07;2.13;;;2.00;99.90;;;;;;5054619;28;20196;-50
2023/04/03 00:30:56;;;;;;;4.68;1.95;;;2.50;99.90;;;;;;5054081;28;20215;-49
2023/04/03 00:33:24;;;;;;;9.48;2.25;;;2.20;99.90;;;;;;5052720;28;20196;-49
2023/04/03 00:35:51;;;;;;;10.48;2.60;;;2.50;99.90;;;;;;5053582;28;20275;-49
2023/04/03 00:38:18;;;;;;;6.60;2.35;;;2.30;99.90;;;;;;5053339;28;20219;-49
2023/04/03 00:40:48;;;;;;;6.20;1.80;;;2.20;99.90;;;;;;5052212;28;20242;-50
2023/04/03 00:43:18;;;;;;;6.43;2.00;;;2.20;99.90;;;;;;5052037;28;20222;-49
2023/04/03 00:45:47;;;;;;;5.18;2.08;;;1.90;99.90;;;;;;5052053;28;20207;-49
2023/04/03 00:48:18;;;;;;;4.40;1.77;;;2.40;99.90;;;;;;5052983;28;20689;-49
2023/04/03 00:50:45;;;;;;;6.60;2.35;;;2.40;99.90;;;;;;5053155;28;20238;-49
2023/04/03 00:53:15;;;;;;;6.00;1.77;;;1.80;99.90;;;;;;5053137;28;20192;-49
2023/04/03 00:55:43;;;;;;;5.00;1.95;;;2.40;99.90;;;;;;5052995;28;20665;-49
2023/04/03 00:58:11;;;;;;;7.22;2.65;;;2.30;99.90;;;;;;5052479;28;20219;-49
2023/04/03 01:00:41;;;;;;;6.40;2.50;;;2.30;99.90;;;;;;5051822;28;20230;-49
2023/04/03 01:03:08;;;;;;;5.88;3.58;;;2.10;99.90;;;;;;5052929;28;20207;-49
2023/04/03 01:05:36;;;;;;;7.47;2.65;;;2.10;99.90;;;;;;5051590;28;20200;-49
2023/04/03 01:08:03;;;;;;;7.00;2.50;;;2.00;99.90;;;;;;5052730;28;20249;-49
2023/04/03 01:10:30;;;;;;;7.90;2.38;;;2.30;99.90;;;;;;5052416;28;20212;-50
2023/04/03 01:12:57;;;;;;;7.40;2.00;;;2.30;99.90;;;;;;5051584;28;20676;-49
2023/04/03 01:15:28;;;;;;;7.13;1.92;;;2.00;99.90;;;;;;5051417;28;20636;-50
2023/04/03 01:17:58;;;;;;;8.95;2.13;;;2.00;99.90;;;;;;5052530;28;20646;-50
2023/04/03 01:20:58;;;;;;;4.70;2.45;;;2.20;99.90;;;;;;5050891;28;20224;-49
2023/04/03 01:23:33;;;;;;;6.80;2.55;;;2.30;99.90;;;;;;5051319;28;20684;-50
2023/04/03 01:26:00;;;;;;;4.22;2.15;;;2.00;99.90;;;;;;5051190;28;20226;-50
2023/04/03 01:28:30;;;;;;;10.50;1.80;;;2.20;99.90;;;;;;5050833;28;20196;-50
2023/04/03 01:31:03;;;;;;;5.53;2.17;;;2.10;99.90;;;;;;5051110;28;20247;-50
2023/04/03 01:33:34;;;;;;;6.95;2.25;;;2.10;99.90;;;;;;5051401;28;20208;-49
2023/04/03 01:36:00;;;;;;;4.15;1.95;;;2.10;99.90;;;;;;5052283;28;20192;-50
2023/04/03 01:38:28;;;;;;;7.13;2.00;;;2.10;99.90;;;;;;5050451;28;20692;-49
2023/04/03 01:40:55;;;;;;;8.48;2.13;;;2.10;99.90;;;;;;5050889;28;20238;-50
2023/04/03 01:43:22;;;;;;;5.35;2.28;;;2.10;99.90;;;;;;5050835;28;20203;-50
2023/04/03 01:45:49;;;;;;;7.97;1.90;;;2.00;99.90;;;;;;5052226;28;20196;-49
2023/04/03 01:48:17;;;;;;;6.05;2.25;;;2.10;99.90;;;;;;5050408;28;20206;-50
2023/04/03 01:50:45;;;;;;;7.25;2.35;;;1.90;99.90;;;;;;5052423;28;20223;-48
2023/04/03 01:53:12;;;;;;;8.55;2.30;;;2.00;99.90;;;;;;5050913;28;20269;-50
2023/04/03 01:55:39;;;;;;;4.90;2.30;;;2.00;99.90;;;;;;5050833;28;20261;-47
2023/04/03 01:58:06;;;;;;;3.35;1.75;;;1.90;99.90;;;;;;5050401;28;20215;-49
2023/04/03 02:00:33;;;;;;;8.00;2.13;;;1.80;99.90;;;;;;5050620;28;20226;-48
2023/04/03 02:03:00;;;;;;;8.27;2.75;;;1.90;99.90;;;;;;5051039;28;20585;-47
2023/04/03 02:05:27;;;;;;;7.45;2.30;;;2.00;99.90;;;;;;5050792;28;20196;-48
2023/04/03 02:07:55;;;;;;;3.30;1.83;;;2.10;99.90;;;;;;5050637;28;20223;-47
2023/04/03 02:10:21;;;;;;;5.80;1.95;;;1.90;99.90;;;;;;5051582;28;20302;-46
2023/04/03 02:12:48;;;;;;;3.35;1.80;;;1.80;99.90;;;;;;5050636;28;20279;-46
2023/04/03 02:15:15;;;;;;;3.83;2.45;;;1.70;99.90;;;;;;5050450;28;20235;-47
2023/04/03 02:17:41;;;;;;;6.32;2.25;;;1.80;99.90;;;;;;5050467;28;20203;-48
2023/04/03 02:20:09;;;;;;;6.82;2.40;;;1.60;99.90;;;;;;5051267;28;20306;-47
2023/04/03 02:22:36;;;;;;;5.28;2.08;;;1.70;99.90;;;;;;5051860;28;20234;-46
2023/04/03 02:25:05;;;;;;;5.15;2.38;;;2.00;99.90;;;;;;5055763;28;20192;-50
2023/04/03 02:27:31;;;;;;;6.90;2.08;;;1.90;99.90;;;;;;5055710;28;20198;-47
2023/04/03 02:29:58;;;;;;;6.43;2.00;;;1.30;99.90;;;;;;5054038;28;20215;-48
2023/04/03 02:32:25;;;;;;;5.82;2.35;;;1.80;99.90;;;;;;5054436;28;20210;-49
2023/04/03 02:34:52;;;;;;;5.88;2.38;;;1.80;99.90;;;;;;5054467;28;20245;-47
2023/04/03 02:37:18;;;;;;;5.53;2.13;;;1.80;99.90;;;;;;5054352;28;20204;-48
2023/04/03 02:39:47;;;;;;;3.28;1.88;;;1.70;99.90;;;;;;5053845;28;20588;-50
2023/04/03 02:42:15;;;;;;;2.97;2.00;;;1.10;99.90;;;;;;5054238;28;20280;-48
2023/04/03 02:44:42;;;;;;;4.57;2.10;;;1.60;99.90;;;;;;5054198;28;20294;-48
2023/04/03 02:47:10;;;;;;;5.22;2.38;;;1.10;99.90;;;;;;5054290;28;20548;-49
2023/04/03 02:49:36;;;;;;;4.13;2.10;;;1.20;99.90;;;;;;5054900;28;20227;-48
2023/04/03 02:52:03;;;;;;;5.70;1.88;;;0.90;99.90;;;;;;5055498;28;20680;-48
2023/04/03 02:54:30;;;;;;;4.28;2.15;;;1.70;99.90;;;;;;5053995;28;20204;-48
2023/04/03 02:57:00;;;;;;;3.88;2.33;;;1.30;99.90;;;;;;5053885;28;20208;-48
2023/04/03 02:59:28;;;;;;;9.48;2.63;;;1.50;99.90;;;;;;5053597;28;20231;-45
2023/04/03 03:01:55;;;;;;;6.53;2.22;;;1.50;99.90;;;;;;5053865;28;20665;-47
2023/04/03 03:04:22;;;;;;;8.40;2.85;;;1.30;99.90;;;;;;5053688;28;20196;-48
2023/04/03 03:06:48;;;;;;;5.22;1.70;;;1.70;99.90;;;;;;5055101;28;20196;-48
2023/04/03 03:09:15;;;;;;;7.22;2.40;;;1.60;99.90;;;;;;5054444;28;20212;-46
2023/04/03 03:11:42;;;;;;;5.95;2.15;;;1.70;99.90;;;;;;5055044;28;20187;-47
2023/04/03 03:14:09;;;;;;;9.73;2.67;;;1.60;99.90;;;;;;5053679;28;20202;-47
2023/04/03 03:16:37;;;;;;;8.10;1.67;;;1.50;99.90;;;;;;5053509;28;20239;-48
2023/04/03 03:19:04;;;;;;;9.88;2.22;;;1.20;99.90;;;;;;5053139;28;20253;-47
2023/04/03 03:21:31;;;;;;;5.28;2.10;;;1.40;99.90;;;;;;5054975;28;20242;-47
2023/04/03 03:23:57;;;;;;;7.25;2.60;;;1.30;99.90;;;;;;5054079;28;20207;-47
2023/04/03 03:26:24;;;;;;;5.97;2.30;;;1.20;99.90;;;;;;5055048;28;20209;-49
2023/04/03 03:28:51;;;;;;;9.07;2.67;;;1.30;99.90;;;;;;5054509;28;20192;-47
2023/04/03 03:31:18;;;;;;;4.07;2.30;;;1.30;99.90;;;;;;5053704;28;20818;-48
2023/04/03 03:33:46;;;;;;;4.00;2.10;;;1.40;99.90;;;;;;5055069;28;20232;-48
2023/04/03 03:36:13;;;;;;;4.60;2.28;;;1.30;99.90;;;;;;5053456;28;20199;-47
2023/04/03 03:38:40;;;;;;;5.68;2.10;;;1.30;99.90;;;;;;5053239;28;20227;-48
2023/04/03 03:41:07;;;;;;;6.07;2.03;;;1.30;99.90;;;;;;5053490;28;20214;-49
2023/04/03 03:43:35;;;;;;;5.20;2.63;;;1.40;99.90;;;;;;5053112;28;20745;-48
2023/04/03 03:46:04;;;;;;;4.43;2.40;;;1.40;99.90;;;;;;5053432;28;20221;-46
2023/04/03 03:48:30;;;;;;;7.13;2.33;;;1.40;99.90;;;;;;5054248;28;20811;-46
2023/04/03 03:50:58;;;;;;;8.38;2.53;;;1.10;99.90;;;;;;5052552;28;20599;-47
2023/04/03 03:53:29;;;;;;;6.47;2.13;;;0.90;99.90;;;;;;5052837;28;20234;-47
2023/04/03 03:56:00;;;;;;;6.68;2.40;;;1.30;99.90;;;;;;5052942;28;20289;-49
2023/04/03 03:58:29;;;;;;;4.50;1.85;;;1.00;99.90;;;;;;5052221;28;20204;-50
2023/04/03 04:00:56;;;;;;;5.72;1.95;;;1.00;99.90;;;;;;5052846;28;20254;-47
2023/04/03 04:03:22;;;;;;;13.90;4.07;;;1.00;99.90;;;;;;5052578;28;20203;-46
2023/04/03 04:05:51;;;;;;;3.13;1.95;;;1.30;99.90;;;;;;5052762;28;20550;-48
2023/04/03 04:08:19;;;;;;;6.35;2.30;;;1.10;99.90;;;;;;5052395;28;20207;-47
2023/04/03 04:10:46;;;;;;;7.70;2.20;;;1.00;99.90;;;;;;5052485;28;20218;-48
2023/04/03 04:13:16;;;;;;;6.30;2.60;;;1.10;99.90;;;;;;5052439;28;20196;-49
2023/04/03 04:15:43;;;;;;;3.70;2.05;;;1.00;99.90;;;;;;5052555;28;20222;-48
2023/04/03 04:18:10;;;;;;;4.45;2.08;;;1.20;99.90;;;;;;5053345;28;20276;-47
2023/04/03 04:20:37;;;;;;;7.47;2.67;;;0.80;99.90;;;;;;5052253;28;20282;-48
2023/04/03 04:23:04;;;;;;;5.13;2.45;;;1.00;99.90;;;;;;5052225;28;20211;-46
2023/04/03 04:25:33;;;;;;;5.25;2.22;;;1.10;99.90;;;;;;5053552;28;20198;-49
2023/04/03 04:28:00;;;;;;;6.32;2.35;;;1.10;99.90;;;;;;5052305;28;20203;-50
2023/04/03 04:30:27;;;;;;;12.48;2.83;;;1.10;99.90;;;;;;5051742;28;20219;-48
2023/04/03 04:32:55;;;;;;;7.32;2.75;;;1.00;99.90;;;;;;5052220;28;20232;-47
2023/04/03 04:35:22;;;;;;;7.30;2.67;;;1.00;99.90;;;;;;5051867;28;20289;-49
2023/04/03 04:37:51;;;;;;;5.38;2.30;;;1.00;99.90;;;;;;5051823;28;20205;-47
2023/04/03 04:40:18;;;;;;;8.55;2.92;;;1.00;99.90;;;;;;5051528;28;20282;-47
2023/04/03 04:42:46;;;;;;;9.75;2.65;;;0.60;99.90;;;;;;5051836;28;20203;-47
2023/04/03 04:45:14;;;;;;;9.35;2.38;;;0.90;99.90;;;;;;5051550;28;20200;-47
2023/04/03 04:47:43;;;;;;;6.72;2.38;;;1.00;99.90;;;;;;5052023;28;20199;-48
2023/04/03 04:50:12;;;;;;;7.60;2.10;;;1.20;99.90;;;;;;5051526;28;20330;-51
2023/04/03 04:52:39;;;;;;;5.90;2.33;;;1.20;99.90;;;;;;5051646;28;20200;-49
2023/04/03 04:55:08;;;;;;;7.22;2.65;;;1.00;99.90;;;;;;5052006;28;20286;-46
2023/04/03 04:57:35;;;;;;;5.22;2.20;;;1.20;99.90;;;;;;5051471;28;20665;-50
2023/04/03 05:00:04;;;;;;;4.10;2.30;;;1.00;99.90;;;;;;5052324;28;20244;-47
2023/04/03 05:02:31;;;;;;;11.20;3.63;;;1.10;99.90;;;;;;5052691;28;20192;-47
2023/04/03 05:04:58;;;;;;;8.82;2.75;;;0.90;99.90;;;;;;5051445;28;20236;-46
2023/04/03 05:07:27;;;;;;;4.63;2.38;;;1.20;99.90;;;;;;5052853;28;20644;-46
2023/04/03 05:09:54;;;;;;;12.57;2.72;;;1.10;99.90;;;;;;5050744;28;20227;-47
2023/04/03 05:12:21;;;;;;;5.50;1.88;;;1.00;99.90;;;;;;5051298;28;20293;-48
2023/04/03 05:14:54;;;;;;;11.32;3.20;;;1.00;99.90;;;;;;5051295;28;20202;-46
2023/04/03 05:17:22;;;;;;;8.07;2.88;;;1.10;99.90;;;;;;5051219;28;20196;-46
2023/04/03 05:19:53;;;;;;;5.53;1.95;;;1.30;99.90;;;;;;5050674;28;20220;-48
2023/04/03 05:22:22;;;;;;;7.22;2.90;;;1.10;99.90;;;;;;5051407;28;20734;-45
2023/04/03 05:24:49;;;;;;;8.45;2.47;;;0.90;99.90;;;;;;5051048;28;20250;-47
2023/04/03 05:27:18;;;;;;;4.63;2.03;;;1.30;99.90;;;;;;5050820;28;20292;-48
2023/04/03 05:29:48;;;;;;;3.05;2.00;;;1.30;99.90;;;;;;5050616;28;20215;-47
2023/04/03 05:32:21;;;;;;;4.97;2.13;;;1.40;99.90;;;;;;5050590;28;20675;-46
2023/04/03 05:34:52;;;;;;;4.90;2.80;;;1.30;99.90;;;;;;5050804;28;20229;-48
2023/04/03 05:37:20;;;;;;;6.25;2.15;;;1.20;99.90;;;;;;5051188;28;20206;-47
2023/04/03 05:39:47;;;;;;;7.35;2.10;;;1.30;99.90;;;;;;5051755;28;20224;-47
2023/04/03 05:42:15;;;;;;;7.05;2.60;;;1.40;99.90;;;;;;5050728;28;20207;-48
2023/04/03 05:44:43;;;;;;;7.65;2.60;;;1.10;99.90;;;;;;5051119;28;20648;-48
2023/04/03 05:47:10;;;;;;;5.82;3.08;;;0.90;99.90;;;;;;5050774;28;20206;-48
2023/04/03 05:49:40;;;;;;;4.63;2.20;;;1.30;99.90;;;;;;5051614;28;20298;-47
2023/04/03 05:52:07;;;;;;;5.25;2.88;;;1.80;99.90;;;;;;5051113;28;20203;-48
2023/04/03 05:54:34;;;;;;;12.02;2.83;;;1.90;99.90;;;;;;5053412;28;20623;-48
2023/04/03 05:57:07;;;;;;;7.05;2.40;;;2.10;99.90;;;;;;5052368;28;20203;-47
2023/04/03 05:59:33;;;;;;;7.00;2.15;;;2.00;99.90;;;;;;5057083;28;20228;-50
2023/04/03 06:02:01;;;;;;;8.68;2.10;;;2.10;99.90;;;;;;5053554;28;20204;-48
2023/04/03 06:04:27;;;;;;;8.70;3.10;;;1.60;99.90;;;;;;5054736;28;20291;-48
2023/04/03 06:06:58;;;;;;;6.32;2.63;;;2.10;99.90;;;;;;5053396;28;20200;-47
2023/04/03 06:09:28;;;;;;;5.60;2.03;;;3.00;99.90;;;;;;5052859;28;20208;-49
2023/04/03 06:11:55;;;;;;;6.25;2.17;;;2.60;99.90;;;;;;5053542;28;20200;-47
2023/04/03 06:14:23;;;;;;;5.25;2.47;;;2.50;99.90;;;;;;5053277;28;20222;-48
2023/04/03 06:16:50;;;;;;;6.13;2.03;;;2.60;99.90;;;;;;5054446;28;20211;-48
2023/04/03 06:19:17;;;;;;;4.68;1.90;;;2.60;99.90;;;;;;5052707;28;20224;-48
2023/04/03 06:21:48;;;;;;;6.03;2.20;;;2.20;99.90;;;;;;5052311;28;20189;-48
2023/04/03 06:24:17;;;;;;;7.57;2.20;;;2.90;99.90;;;;;;5051357;28;20265;-47
2023/04/03 06:26:45;;;;;;;8.50;2.10;;;2.80;99.90;;;;;;5051689;28;20196;-47
2023/04/03 06:29:12;;;;;;;7.38;1.90;;;2.70;99.90;;;;;;5051296;28;20245;-49
2023/04/03 06:31:38;;;;;;;8.20;2.88;;;2.80;99.90;;;;;;5050939;28;20416;-50
2023/04/03 06:34:06;;;;;;;8.02;2.35;;;3.10;99.90;;;;;;5051727;28;20287;-47
2023/04/03 06:36:32;;;;;;;6.13;2.35;;;3.10;99.90;;;;;;5052197;28;20227;-48
2023/04/03 06:38:59;;;;;;;8.00;2.28;;;3.10;99.90;;;;;;5051042;28;20224;-47
2023/04/03 06:41:27;;;;;;;9.88;3.03;;;3.00;99.90;;;;;;5051835;28;20215;-47
2023/04/03 06:43:56;;;;;;;5.18;2.10;;;3.10;99.90;;;;;;5050899;28;20196;-47
2023/04/03 06:46:23;;;;;;;3.72;1.73;;;3.20;99.90;;;;;;5051607;28;20192;-48
2023/04/03 06:48:50;;;;;;;6.18;2.33;;;3.40;99.90;;;;;;5049085;28;20208;-47
2023/04/03 06:51:21;;;;;;;9.57;2.78;;;3.30;99.90;;;;;;5049782;28;20208;-48
2023/04/03 06:53:47;;;;;;;5.10;1.80;;;3.50;99.90;;;;;;5051478;28;20196;-49
2023/04/03 06:56:15;;;;;;;4.80;2.20;;;3.30;99.90;;;;;;5053876;28;20215;-47
2023/04/03 06:58:44;;;;;;;5.35;2.00;;;3.00;99.90;;;;;;5053711;28;20681;-48
2023/04/03 07:01:12;;;;;;;6.25;2.30;;;3.80;99.90;;;;;;5052025;28;20262;-47
2023/04/03 07:03:39;;;;;;;7.32;2.00;;;3.60;99.90;;;;;;5051136;28;20207;-47
2023/04/03 07:06:06;;;;;;;5.38;1.60;;;3.70;99.90;;;;;;5051482;28;20207;-48
2023/04/03 07:08:33;;;;;;;5.05;1.73;;;3.70;99.90;;;;;;5052026;28;20569;-49
2023/04/03 07:11:00;;;;;;;3.50;1.65;;;3.70;99.90;;;;;;5054755;28;20184;-47
2023/04/03 07:13:27;;;;;;;4.40;1.63;;;3.80;99.80;;;;;;5054590;28;20665;-50
2023/04/03 07:15:56;;;;;;;4.13;1.83;;;3.80;99.00;;;;;;5055033;28;20306;-47
2023/04/03 07:18:23;;;;;;;6.72;2.05;;;3.70;99.20;;;;;;5054421;28;20200;-47
2023/04/03 07:20:50;;;;;;;9.38;2.20;;;3.80;98.80;;;;;;5054465;28;20708;-48
2023/04/03 07:23:17;;;;;;;2.40;1.48;;;4.10;98.40;;;;;;5054478;28;20220;-48
2023/04/03 07:25:44;;;;;;;4.05;1.65;;;4.30;98.10;;;;;;5054681;28;20204;-50
2023/04/03 07:28:11;;;;;;;10.52;2.05;;;4.40;97.60;;;;;;5053135;28;20207;-47
2023/04/03 07:30:43;;;;;;;4.55;1.83;;;4.50;97.10;;;;;;5054866;28;20212;-48
2023/04/03 07:33:11;;;;;;;5.35;2.00;;;4.40;96.70;;;;;;5054014;28;20207;-48
2023/04/03 07:35:38;;;;;;;4.63;1.40;;;4.60;96.10;;;;;;5053935;28;20196;-49
2023/04/03 07:38:05;;;;;;;7.57;2.40;;;4.40;95.90;;;;;;5054093;28;20200;-49
2023/04/03 07:40:32;;;;;;;6.53;2.00;;;4.50;95.80;;;;;;5054029;28;20343;-47
2023/04/03 07:42:59;;;;;;;3.45;1.67;;;4.50;96.40;;;;;;5054514;28;20196;-48
2023/04/03 07:45:26;;;;;;;4.28;1.95;;;4.50;96.40;;;;;;5054244;28;20435;-47
2023/04/03 07:47:53;;;;;;;3.97;1.42;;;4.40;95.80;;;;;;5053812;28;20688;-47
2023/04/03 07:50:23;;;;;;;3.97;2.15;;;4.30;95.10;;;;;;5053949;28;20604;-49
2023/04/03 07:52:52;;;;;;;5.53;1.75;;;4.40;95.50;;;;;;5053887;28;20196;-50
2023/04/03 07:55:19;;;;;;;5.13;1.60;;;4.60;95.70;;;;;;5053840;28;20749;-50
2023/04/03 07:57:45;;;;;;;8.27;2.00;;;4.60;95.00;;;;;;5053946;28;20200;-51
2023/04/03 08:00:13;;;;;;;4.85;1.73;;;4.70;94.40;;;;;;5051693;28;20270;-50
2023/04/03 08:02:41;;;;;;;5.95;1.58;;;4.80;93.80;;;;;;5053617;28;20192;-50
2023/04/03 08:05:08;;;;;;;3.50;1.70;;;5.10;93.90;;;;;;5053775;28;20460;-49
2023/04/03 08:07:37;;;;;;;6.20;1.83;;;5.20;94.00;;;;;;5053872;28;20436;-50
2023/04/03 08:10:05;;;;;;;4.78;1.60;;;4.70;93.50;;;;;;5054020;28;20215;-49
2023/04/03 08:12:31;;;;;;;6.72;1.80;;;5.20;92.90;;;;;;5054083;28;20188;-49
2023/04/03 08:15:00;;;;;;;5.22;2.03;;;4.50;92.70;;;;;;5052953;28;20912;-50
2023/04/03 08:17:26;;;;;;;3.58;1.45;;;5.00;93.50;;;;;;5053192;28;20236;-51
2023/04/03 08:19:53;;;;;;;5.05;1.60;;;4.90;92.70;;;;;;5051694;28;20216;-49
2023/04/03 08:22:20;;;;;;;8.38;1.50;;;4.80;92.60;;;;;;5053787;28;20212;-50
2023/04/03 08:24:48;;;;;;;7.43;1.65;;;5.00;92.90;;;;;;5053532;28;20288;-49
2023/04/03 08:27:14;;;;;;;8.85;1.92;;;5.10;92.20;;;;;;5053393;28;20206;-49
2023/04/03 08:29:41;;;;;;;13.20;2.33;;;5.10;92.00;;;;;;5052984;28;20222;-50
2023/04/03 08:32:08;;;;;;;2.60;1.60;;;5.10;92.00;;;;;;5053384;28;20196;-50
2023/04/03 08:34:36;;;;;;;3.20;1.48;;;5.20;91.80;;;;;;5053168;28;20207;-50
2023/04/03 08:37:03;;;;;;;4.05;1.45;;;4.90;91.60;;;;;;5053092;28;20192;-49
2023/04/03 08:39:30;;;;;;;8.23;1.43;;;5.30;91.40;;;;;;5052639;28;20220;-49
2023/04/03 08:42:01;;;;;;;3.75;1.40;;;5.30;90.90;;;;;;5053554;28;20525;-49
2023/04/03 08:44:40;;;;;;;4.60;1.52;;;5.00;90.60;;;;;;5052869;28;20440;-49
2023/04/03 08:47:18;;;;;;;5.10;1.80;;;5.10;90.40;;;;;;5053210;28;20214;-51
2023/04/03 08:49:50;;;;;;;5.97;2.42;;;5.20;90.40;;;;;;5051959;28;20432;-50
2023/04/03 08:52:20;;;;;;;5.40;2.13;;;5.40;90.40;;;;;;5052888;28;20602;-49
2023/04/03 08:54:51;;;;;;;5.45;1.83;;;4.70;90.20;;;;;;5052291;28;20197;-49
2023/04/03 08:57:27;;;;;;;4.05;1.80;;;5.30;90.20;;;;;;5053062;28;20196;-51
2023/04/03 08:59:53;;;;;;;4.10;1.30;;;5.20;90.20;;;;;;5051761;28;20222;-49
2023/04/03 09:02:29;;;;;;;3.60;1.60;;;5.40;90.10;;;;;;5052606;28;20880;-50
2023/04/03 09:04:56;;;;;;;4.57;1.80;;;5.50;89.60;;;;;;5051467;28;20436;-49
2023/04/03 09:07:34;;;;;;;3.20;1.60;;;5.80;88.90;;;;;;5052899;28;20200;-50
2023/04/03 09:10:02;;;;;;;8.80;2.37;;;5.50;87.80;;;;;;5052491;28;20226;-50
2023/04/03 09:12:38;;;;;;;5.53;1.50;;;5.70;86.60;;;;;;5053017;28;20415;-49
2023/04/03 09:15:14;;;;;;;5.07;2.10;;;5.90;84.20;;;;;;5051418;28;20925;-50
2023/04/03 09:17:47;;;;;;;5.55;2.38;;;6.40;83.80;;;;;;5051376;28;20442;-53
2023/04/03 09:20:25;;;;;;;5.10;1.60;;;6.50;81.90;;;;;;5052090;28;20452;-50
2023/04/03 09:22:54;;;;;;;4.82;1.58;;;6.10;81.00;;;;;;5051496;28;20415;-50
2023/04/03 09:25:23;;;;;;;5.03;1.60;;;6.60;80.50;;;;;;5052650;28;20321;-51
2023/04/03 09:27:52;;;;;;;2.87;2.07;;;6.30;80.30;;;;;;5052527;28;20412;-49
2023/04/03 09:30:22;;;;;;;2.77;1.33;;;6.40;80.90;;;;;;5050261;28;20964;-50
2023/04/03 09:32:50;;;;;;;4.00;1.63;;;5.70;79.80;;;;;;5050979;28;20957;-49
2023/04/03 09:35:22;;;;;;;2.80;1.20;;;6.70;79.30;;;;;;5052060;28;20442;-50
2023/04/03 09:37:49;;;;;;;4.57;1.50;;;6.30;78.70;;;;;;5052156;28;20721;-50
2023/04/03 09:40:35;;;;;;;7.07;1.70;;;6.50;78.20;;;;;;5051553;28;20960;-49
2023/04/03 09:43:20;;;;;;;7.73;1.80;;;6.50;77.10;;;;;;5051879;28;20403;-49
2023/04/03 09:45:48;;;;;;;2.30;1.67;;;6.30;78.40;;;;;;5052105;28;20824;-50
2023/04/03 09:48:18;;;;;;;3.57;1.40;;;6.00;78.80;;;;;;5051333;28;20407;-50
2023/04/03 09:50:58;;;;;;;2.37;1.20;;;6.10;79.40;;;;;;5051585;28;20459;-49
2023/04/03 09:53:32;;;;;;;5.07;2.17;;;6.10;79.80;;;;;;5051892;28;20770;-50
2023/04/03 09:56:00;;;;;;;2.80;1.30;;;6.40;80.60;;;;;;5051026;28;20902;-50
2023/04/03 09:58:30;;;;;;;3.70;1.50;;;6.40;80.20;;;;;;5051019;28;20407;-50
2023/04/03 10:00:59;;;;;;;9.10;1.70;;;6.00;79.80;;;;;;5050172;28;20476;-49
2023/04/03 10:03:30;;;;;;;4.13;1.40;;;6.00;79.80;;;;;;5051642;28;20779;-50
2023/04/03 10:05:57;;;;;;;3.47;1.53;;;6.50;80.90;;;;;;5051836;28;20918;-51
2023/04/03 10:08:28;;;;;;;4.00;1.40;;;6.30;78.60;;;;;;5050654;28;20424;-51
2023/04/03 10:11:14;;;;;;;4.63;2.40;;;6.40;79.30;;;;;;5051576;28;20218;-53
2023/04/03 10:13:54;;;;;;;6.73;1.73;;;6.40;77.70;;;;;;5050254;28;20447;-50
2023/04/03 10:16:27;;;;;;;2.10;1.33;;;6.50;78.50;;;;;;5051903;28;20493;-49
2023/04/03 10:19:02;;;;;;;4.13;2.07;;;6.80;79.40;;;;;;5051539;28;20442;-54
2023/04/03 10:21:42;;;;;;;3.10;1.07;;;6.80;79.10;;;;;;5051470;28;20462;-50
2023/04/03 10:24:13;;;;;;;3.07;1.40;;;6.40;77.10;;;;;;5051212;28;20449;-50
2023/04/03 10:26:46;;;;;;;5.30;1.60;;;6.20;77.00;;;;;;5050941;28;20979;-50
2023/04/03 10:29:26;;;;;;;2.40;1.27;;;7.00;76.00;;;;;;5051278;28;20513;-51
2023/04/03 10:32:03;;;;;;;4.97;1.60;;;6.80;74.60;;;;;;5051721;28;20434;-51
2023/04/03 10:34:34;;;;;;;3.93;1.40;;;7.10;73.50;;;;;;5050873;28;20432;-50
2023/04/03 10:37:12;;;;;;;10.60;1.83;;;6.90;72.80;;;;;;5051503;28;20419;-50
2023/04/03 10:39:47;;;;;;;2.00;1.23;;;7.00;72.50;;;;;;5051087;28;20768;-51
2023/04/03 10:42:20;;;;;;;3.60;1.93;;;7.00;71.50;;;;;;5051153;28;20461;-51
2023/04/03 10:45:02;;;;;;;2.67;1.60;;;7.30;72.30;;;;;;5054934;28;20461;-50
2023/04/03 10:47:35;;;;;;;5.30;1.50;;;7.20;72.30;;;;;;5055370;28;20446;-51
2023/04/03 10:50:24;;;;;;;3.23;1.60;;;7.50;73.00;;;;;;5054661;28;20466;-50
2023/04/03 10:52:58;;;;;;;1.60;1.10;;;7.40;72.10;;;;;;5055154;28;20411;-50
2023/04/03 10:55:35;;;;;;;2.93;1.40;;;7.80;72.20;;;;;;5054940;28;20849;-51
2023/04/03 10:58:03;;;;;;;4.47;1.70;;;7.70;72.20;;;;;;5054886;28;20436;-49
2023/04/03 11:00:39;;;;;;;3.77;1.20;;;7.70;71.90;;;;;;5054782;28;20428;-50
2023/04/03 11:03:09;;;;;;;2.80;1.50;;;7.80;70.40;;;;;;5054933;28;20490;-50
2023/04/03 11:05:41;;;;;;;2.97;1.23;;;7.40;70.60;;;;;;5054223;28;20430;-50
2023/04/03 11:08:14;;;;;;;3.83;1.27;;;6.90;70.80;;;;;;5055141;28;20525;-51
2023/04/03 11:10:44;;;;;;;3.73;1.30;;;7.60;70.80;;;;;;5055276;28;20456;-50
2023/04/03 11:13:15;;;;;;;2.10;1.37;;;6.80;70.80;;;;;;5055064;28;20437;-48
2023/04/03 11:15:44;;;;;;;4.97;1.83;;;7.10;71.70;;;;;;5055043;28;20475;-49
2023/04/03 11:18:14;;;;;;;6.10;1.57;;;7.60;71.80;;;;;;5055024;28;20798;-50
2023/04/03 11:20:57;;;;;;;4.23;1.40;;;7.70;71.60;;;;;;5055457;28;20464;-50
2023/04/03 11:23:27;;;;;;;2.33;1.40;;;6.90;71.10;;;;;;5055430;28;20433;-50
2023/04/03 11:25:57;;;;;;;2.47;1.50;;;7.50;72.30;;;;;;5054968;28;20835;-51
2023/04/03 11:28:23;;;;;;;3.00;1.40;;;6.70;72.10;;;;;;5054269;28;20414;-50
2023/04/03 11:31:00;;;;;;;2.80;1.30;;;7.50;72.80;;;;;;5052757;28;20442;-50
2023/04/03 11:33:41;;;;;;;4.47;1.47;;;7.50;73.20;;;;;;5053729;28;20435;-49
2023/04/03 11:36:13;;;;;;;2.37;1.53;;;7.50;72.90;;;;;;5054361;28;20433;-50
2023/04/03 11:38:43;;;;;;;2.63;1.50;;;7.40;73.30;;;;;;5053718;28;20412;-50
2023/04/03 11:41:11;;;;;;;2.10;1.07;;;7.70;73.60;;;;;;5054030;28;20474;-50
2023/04/03 11:43:42;;;;;;;2.40;1.60;;;8.00;73.20;;;;;;5052512;28;20780;-50
2023/04/03 11:46:11;;;;;;;3.60;2.07;;;7.70;72.40;;;;;;5054377;28;20437;-51
2023/04/03 11:48:51;;;;;;;3.23;1.57;;;7.50;72.30;;;;;;5053714;28;20690;-50
2023/04/03 11:51:50;;;;;;;6.90;1.80;;;7.60;72.60;;;;;;5053686;28;20419;-50
2023/04/03 11:54:47;;;;;;;2.80;1.43;;;8.00;73.20;;;;;;5046816;28;20860;-51
2023/04/03 11:58:03;;;;;;;5.50;1.43;;;7.80;72.50;;;;;;5053900;28;20954;-49
2023/04/03 12:01:03;;;;;;;3.40;1.73;;;7.60;73.30;;;;;;5053554;28;20452;-50
2023/04/03 12:03:53;;;;;;;3.80;1.70;;;7.30;72.00;;;;;;5053894;28;20468;-50
2023/04/03 12:06:56;;;;;;;3.17;1.50;;;7.20;72.70;;;;;;5053518;28;20503;-50
2023/04/03 12:09:30;;;;;;;2.90;1.80;;;7.50;73.20;;;;;;5028696;28;20521;-49
2023/04/03 12:11:58;;;;;;;2.80;1.40;;;7.20;72.70;;;;;;5053534;28;20413;-51
2023/04/03 12:14:26;;;;;;;6.50;1.30;;;7.10;72.90;;;;;;5053526;28;20403;-50
2023/04/03 12:16:57;;;;;;;3.60;1.70;;;7.50;72.30;;;;;;5053730;28;20416;-50
2023/04/03 12:19:36;;;;;;;2.80;1.37;;;7.60;72.70;;;;;;5052823;28;20970;-49
2023/04/03 12:22:16;;;;;;;2.17;1.50;;;7.50;73.50;;;;;;5053536;28;20573;-50
2023/04/03 12:24:46;;;;;;;3.73;1.97;;;7.30;73.40;;;;;;5053653;28;20495;-50
2023/04/03 12:27:41;;;;;;;3.77;2.57;;;6.90;74.00;;;;;;5053666;28;20904;-51
2023/04/03 12:30:18;;;;;;;3.37;1.30;;;7.20;74.90;;;;;;5052419;28;20427;-51
2023/04/03 12:32:59;;;;;;;4.97;1.60;;;7.40;75.00;;;;;;5053528;28;20433;-50
2023/04/03 12:35:33;;;;;;;3.90;1.37;;;7.20;73.70;;;;;;5054688;28;20428;-50
2023/04/03 12:38:24;;;;;;;4.37;1.47;;;7.30;73.80;;;;;;5053882;28;20410;-50
2023/04/03 12:40:56;;;;;;;5.53;1.20;;;7.50;72.70;;;;;;5053761;28;20985;-50
2023/04/03 12:43:42;;;;;;;2.07;1.33;;;7.50;72.60;;;;;;5053930;28;20489;-49
2023/04/03 12:46:16;;;;;;;1.90;1.10;;;7.80;70.80;;;;;;5053487;28;20442;-49
2023/04/03 12:48:50;;;;;;;3.10;1.20;;;7.90;70.40;;;;;;5052623;28;20427;-49
2023/04/03 12:51:23;;;;;;;2.43;1.10;;;7.80;70.60;;;;;;5052957;28;20404;-50
2023/04/03 12:53:52;;;;;;;3.83;1.40;;;7.80;71.10;;;;;;5052946;28;20408;-49
2023/04/03 12:56:27;;;;;;;4.47;1.10;;;7.20;70.70;;;;;;5052862;28;20408;-51
2023/04/03 12:58:57;;;;;;;5.90;1.27;;;7.70;70.40;;;;;;5052108;28;20796;-50
2023/04/03 13:01:26;;;;;;;3.40;1.37;;;7.80;71.10;;;;;;5051459;28;20416;-50
2023/04/03 13:03:55;;;;;;;2.85;1.38;;;7.50;70.50;;;;;;5051816;28;21201;-50
2023/04/03 13:06:27;;;;;;;2.40;1.27;;;7.60;70.30;;;;;;5052219;28;20704;-50
2023/04/03 13:08:57;;;;;;;2.10;1.20;;;7.60;70.40;;;;;;5052040;28;20897;-50
2023/04/03 13:11:26;;;;;;;3.50;1.10;;;7.50;71.50;;;;;;5052281;28;20410;-50
2023/04/03 13:13:57;;;;;;;2.23;1.17;;;7.40;71.60;;;;;;5052772;28;20770;-51